April 4-5, 2006 Storm Statistics

Readings From Weather Bus.com:

Rain Start Time: April 5, 2006 at 3:50am
Rain End Time: April 5, 2006 at 9:55am

Storm Total: 0.04in.
Max Rain Rate: 0.49in/hr
Peak Wind Gust: NW @ 28mph

Comments:
The wind, on March 4th and 5th, was the main factor with this storm system as it moved through the valley. Looking at the "March 5, 2006 Tabular Daily Data" you can see the wind speed/gust for our location. A trace amount of rain was recorded on March 4th with a measurable rain amount of 0.04in. recorded in the morning, on March 5th. A "splash" of rain was reported in Gold Canyon by LaQuieta at 7:28am. Along with the light rain showers in the morning, there were numerous thunderstorms. There were 3,101 lightning strokes, with 298 of them being within 50 miles of our location, on March 5th.



March 5, 2006 Tabular Daily Data:
4/5/06
Time         Wind Dir   Wind Spd  Wind Gust   Humidity       Temp   Tot Rain Wind Chill Heat Index  Dew Point   Barom SL  DailyRain   HourRain   RainRate
                            mph        mph          %         F         in         F         F         F         in         in         in      in/hr
12:00am            88          7         13         33       75.1       2.47       75.1       74.5       44.1      29.75       0.00       0.00      0.000
12:15am            83          5         15         34       74.7       2.47       74.7       74.2       44.5      29.74       0.00       0.00      0.000
12:30am            85          5         13         39       73.7       2.47       73.7       73.5       47.2      29.74       0.00       0.00      0.000
12:45am            76          6         14         39       73.3       2.47       73.3       73.1       46.9      29.73       0.00       0.00      0.000
1:00am             99          5         15         39       73.3       2.47       73.3       73.1       46.9      29.73       0.00       0.00      0.000
1:15am            118          3         12         40       72.7       2.47       72.7       72.6       47.0      29.73       0.00       0.00      0.000
1:30am            130          1          5         42       72.0       2.47       72.0       72.1       47.7      29.74       0.00       0.00      0.000
1:45am            162         15         15         40       72.3       2.47       72.3       72.2       46.7      29.75       0.00       0.00      0.000
2:00am            138          3         12         38       73.0       2.47       73.0       72.8       45.9      29.74       0.00       0.00      0.000
2:15am            124          2          6         40       72.1       2.47       72.1       72.0       46.5      29.73       0.00       0.00      0.000
2:30am            162          0          4         42       71.3       2.47       71.3       71.4       47.0      29.74       0.00       0.00      0.000
2:45am            194          5          6         37       70.9       2.47       70.9       70.6       43.4      29.73       0.00       0.00      0.000
3:00am            187          2          8         37       70.4       2.47       70.4       70.1       42.9      29.74       0.00       0.00      0.000
3:15am            162          4          6         36       69.9       2.47       69.9       69.5       41.8      29.73       0.00       0.00      0.000
3:30am            145          3         10         32       70.3       2.47       70.3       69.6       39.1      29.72       0.00       0.00      0.000
3:44am            171          9         15         32       70.6       2.47       70.6       69.9       39.3      29.72       0.00       0.00      0.000
4:00am            150          4         14         33       70.1       2.48       70.1       69.5       39.7      29.73       0.01       0.01      0.000
4:15am            150          4         15         33       69.9       2.48       69.9       69.3       39.5      29.73       0.01       0.01      0.000
4:30am            164          3         16         32       69.9       2.48       69.9       69.2       38.7      29.74       0.01       0.01      0.000
4:45am            177          7         15         33       69.4       2.48       69.4       68.8       39.1      29.74       0.01       0.01      0.000
5:00am            117         11         21         32       69.1       2.48       69.1       68.4       38.0      29.75       0.01       0.01      0.000
5:15am             85          2         13         39       67.6       2.48       67.6       67.4       41.8      29.75       0.01       0.00      0.000
5:30am            131          7         12         37       67.3       2.48       67.3       67.0       40.2      29.75       0.01       0.00      0.000
5:45am            124          9         16         37       67.1       2.48       67.1       66.8       40.0      29.77       0.01       0.00      0.000
6:00am            131          4         16         37       66.6       2.48       66.6       66.3       39.5      29.77       0.01       0.00      0.000
6:15am            149          4         14         39       66.3       2.48       66.3       66.1       40.6      29.77       0.01       0.00      0.000
6:30am            160          5         13         42       65.8       2.48       65.8       65.9       42.1      29.78       0.01       0.00      0.000
6:45am            148         10         14         45       65.5       2.48       65.2       65.8       43.6      29.79       0.01       0.00      0.000
7:00am            155          7         15         46       65.6       2.48       65.6       66.0       44.3      29.80       0.01       0.00      0.000
7:15am            183          5         12         48       65.2       2.48       65.2       65.8       45.0      29.81       0.01       0.00      0.000
7:30am            187          3         12         50       64.7       2.48       64.7       65.5       45.7      29.82       0.01       0.00      0.000
7:45am            204          0          7         51       64.7       2.48       64.7       65.6       46.2      29.82       0.01       0.00      0.000
8:00am            214          3         15         56       64.5       2.48       64.5       65.9       48.5      29.82       0.01       0.00      0.000
8:15am            188         11         23         61       64.5       2.48       63.8       66.4       50.8      29.82       0.01       0.00      0.000
8:30am            193         14         21         61       64.5       2.48       63.4       66.4       50.8      29.82       0.01       0.00      0.000
8:45am            214          9         22         63       64.5       2.48       64.2       66.6       51.6      29.82       0.01       0.00      0.000
9:00am            221          7         21         63       64.0       2.48       64.0       66.1       51.2      29.83       0.01       0.00      0.000
9:15am            250          5         21         66       63.9       2.48       63.9       66.4       52.3      29.84       0.01       0.00      0.000
9:30am            221         11         25         73       62.9       2.48       61.8       66.2       54.1      29.85       0.01       0.00      0.000
9:45am            233         12         23         78       60.7       2.48       58.9       64.7       53.8      29.87       0.01       0.00      0.000
10:00am           293         15         18         82       56.5       2.51       53.0       61.0       51.1      29.90       0.04       0.03      0.100
10:15am           276         14         24         78       56.3       2.51       52.9       60.3       49.5      29.91       0.04       0.03      0.000
10:30am           293          6         20         77       56.3       2.51       55.2       60.1       49.2      29.92       0.04       0.03      0.000
10:45am           269         11         19         71       57.5       2.51       55.1       60.6       48.2      29.93       0.04       0.03      0.000
11:00am           256          6         20         68       58.4       2.51       57.7       61.1       47.9      29.93       0.04       0.03      0.000
11:15am           283          8         19         63       58.9       2.51       57.6       61.0       46.3      29.93       0.04       0.00      0.000
11:30am           226          5         13         58       59.9       2.51       59.8       61.5       45.1      29.92       0.04       0.00      0.000
11:45am           259          4         10         55       59.5       2.51       59.5       60.8       43.3      29.92       0.04       0.00      0.000
12:00pm           199          4         10         49       59.8       2.51       59.8       60.5       40.6      29.91       0.04       0.00      0.000
12:15pm           188          2          6         50       62.0       2.51       62.0       62.8       43.2      29.91       0.04       0.00      0.000
12:30pm           203          1         10         48       62.4       2.51       62.4       63.0       42.5      29.90       0.04       0.00      0.000
12:45pm           205          2         12         43       64.3       2.51       64.3       64.5       41.3      29.89       0.04       0.00      0.000
1:00pm            220          6         14         40       65.5       2.51       65.5       65.4       40.6      29.88       0.04       0.00      0.000
1:15pm            212          4         14         37       65.6       2.51       65.6       65.3       38.7      29.87       0.04       0.00      0.000
1:30pm            230          1         16         37       66.4       2.51       66.4       66.1       39.4      29.87       0.04       0.00      0.000
1:45pm            269          5         14         32       66.8       2.51       66.8       66.1       36.0      29.86       0.04       0.00      0.000
2:00pm            223         10         17         31       67.3       2.51       67.3       66.6       35.7      29.85       0.04       0.00      0.000
2:15pm            162          5         21         28       68.4       2.51       68.4       67.5       34.1      29.85       0.04       0.00      0.000
2:30pm            195         10         22         29       68.3       2.51       68.3       67.4       34.8      29.85       0.04       0.00      0.000
2:45pm            239          9         16         29       68.3       2.51       68.3       67.4       34.8      29.84       0.04       0.00      0.000
3:00pm            212         11         17         30       68.8       2.51       68.8       68.0       36.1      29.84       0.04       0.00      0.000
3:15pm            226         12         20         30       68.8       2.51       68.8       68.0       36.1      29.84       0.04       0.00      0.000
3:30pm            236         11         17         32       68.8       2.51       68.8       68.1       37.8      29.83       0.04       0.00      0.000
3:45pm            210         10         22         31       68.8       2.51       68.8       68.1       37.0      29.83       0.04       0.00      0.000
4:00pm            242          6         23         30       69.6       2.51       69.6       68.8       36.8      29.82       0.04       0.00      0.000
4:15pm            217         11         14         29       68.9       2.51       68.9       68.0       35.4      29.82       0.04       0.00      0.000
4:30pm            207          9         20         28       68.6       2.51       68.6       67.7       34.2      29.83       0.04       0.00      0.000
4:45pm            215         12         23         25       69.1       2.51       69.1       68.0       31.8      29.83       0.04       0.00      0.000
5:00pm            187         10         18         26       68.3       2.51       68.3       67.2       32.1      29.83       0.04       0.00      0.000
5:15pm            253         12         16         26       68.6       2.51       68.6       67.5       32.4      29.82       0.04       0.00      0.000
5:30pm            247          3         18         24       68.1       2.51       68.1       66.9       30.0      29.82       0.04       0.00      0.000
5:45pm            224          7         16         25       66.9       2.51       66.9       65.8       30.0      29.82       0.04       0.00      0.000
6:00pm            230          7         15         26       66.3       2.51       66.3       65.2       30.4      29.82       0.04       0.00      0.000
6:15pm            238          4         14         26       66.3       2.51       66.3       65.2       30.4      29.83       0.04       0.00      0.000
6:30pm            233         10         14         27       66.1       2.51       66.0       65.1       31.2      29.83       0.04       0.00      0.000
6:45pm            226          8         17         28       65.8       2.51       65.8       64.9       31.8      29.83       0.04       0.00      0.000
7:00pm            246         11         17         29       65.3       2.51       64.8       64.4       32.3      29.84       0.04       0.00      0.000
7:15pm            240         10         20         31       64.8       2.51       64.4       64.1       33.5      29.84       0.04       0.00      0.000
7:30pm            224          5         16         32       64.3       2.51       64.3       63.6       33.8      29.84       0.04       0.00      0.000
7:45pm            250         10         13         33       64.0       2.51       63.4       63.4       34.3      29.84       0.04       0.00      0.000
8:00pm            234          8         15         32       63.9       2.51       63.7       63.2       33.5      29.84       0.04       0.00      0.000
8:15pm            225          6         14         33       63.5       2.51       63.5       62.9       33.9      29.85       0.04       0.00      0.000
8:30pm            281         17         26         33       63.1       2.51       61.1       62.5       33.6      29.87       0.04       0.00      0.000
8:45pm            271         11         28         46       59.3       2.51       57.3       59.7       38.5      29.88       0.04       0.00      0.000
9:00pm            277         15         22         49       58.6       2.51       55.7       59.3       39.5      29.90       0.04       0.00      0.000
9:15pm            316          7         19         52       57.8       2.51       56.6       58.8       40.3      29.92       0.04       0.00      0.000
9:30pm            300          2         10         51       57.6       2.51       57.6       58.5       39.6      29.92       0.04       0.00      0.000
9:45pm            292         12         20         40       58.1       2.51       55.6       58.0       33.9      29.93       0.04       0.00      0.000
10:00pm           299          5         21         43       57.3       2.51       56.8       57.5       35.0      29.93       0.04       0.00      0.000
10:15pm           310          6         13         42       57.0       2.51       56.0       57.1       34.2      29.94       0.04       0.00      0.000
10:30pm           271         13         13         35       57.2       2.51       54.3       56.7       29.8      29.94       0.04       0.00      0.000
10:45pm           258          7         16         33       57.2       2.51       55.9       56.6       28.4      29.95       0.04       0.00      0.000
11:00pm           268         13         17         32       56.9       2.51       53.9       56.2       27.4      29.95       0.04       0.00      0.000
11:15pm           279          9         23         31       56.6       2.51       54.5       55.9       26.3      29.95       0.04       0.00      0.000
11:30pm           280          7         25         32       56.0       2.51       54.4       55.3       26.6      29.95       0.04       0.00      0.000
11:45pm           281         11         18         33       55.4       2.51       52.5       54.8       26.8      29.96       0.04       0.00      0.000